createdAt,value
2019-03-10T00:00:38.734Z,99.90
2019-03-10T00:03:08.892Z,99.90
2019-03-10T00:05:38.503Z,99.90
2019-03-10T00:08:08.410Z,99.90
2019-03-10T00:10:38.212Z,99.90
2019-03-10T00:13:07.869Z,99.90
2019-03-10T00:15:40.651Z,99.90
2019-03-10T00:18:14.758Z,99.90
2019-03-10T00:20:47.205Z,99.90
2019-03-10T00:23:16.974Z,99.90
2019-03-10T00:25:48.379Z,99.90
2019-03-10T00:28:18.889Z,99.90
2019-03-10T00:30:48.667Z,99.90
2019-03-10T00:33:18.476Z,99.90
2019-03-10T00:35:48.295Z,99.90
2019-03-10T00:38:18.018Z,99.90
2019-03-10T00:41:11.864Z,99.90
2019-03-10T00:44:33.239Z,99.90
2019-03-10T00:47:43.990Z,99.90
2019-03-10T00:50:48.535Z,99.90
2019-03-10T00:53:18.384Z,99.90
2019-03-10T00:55:48.266Z,99.90
2019-03-10T00:58:18.005Z,99.90
2019-03-10T01:00:47.695Z,99.90
2019-03-10T01:03:17.409Z,99.90
2019-03-10T01:05:47.214Z,99.90
2019-03-10T01:08:16.866Z,99.90
2019-03-10T01:10:46.663Z,99.90
2019-03-10T01:13:16.432Z,99.90
2019-03-10T01:15:46.438Z,99.90
2019-03-10T01:18:17.509Z,99.90
2019-03-10T01:20:48.755Z,99.90
2019-03-10T01:23:18.509Z,99.90
2019-03-10T01:25:48.273Z,99.90
2019-03-10T01:28:18.034Z,99.90
2019-03-10T01:30:59.195Z,99.90
2019-03-10T01:34:01.517Z,99.90
2019-03-10T01:36:29.444Z,99.90
2019-03-10T01:38:59.227Z,99.90
2019-03-10T01:41:28.985Z,99.90
2019-03-10T01:43:58.754Z,99.90
2019-03-10T01:46:28.463Z,99.90
2019-03-10T01:48:58.262Z,99.90
2019-03-10T01:51:28.085Z,99.90
2019-03-10T01:53:58.180Z,99.90
2019-03-10T01:56:28.055Z,99.90
2019-03-10T01:58:57.761Z,99.90
2019-03-10T02:01:27.506Z,99.90
2019-03-10T02:03:57.354Z,99.90
2019-03-10T02:06:27.203Z,99.90
2019-03-10T02:08:56.881Z,99.90
2019-03-10T02:11:26.853Z,99.90
2019-03-10T02:13:56.698Z,99.90
2019-03-10T02:16:26.549Z,99.90
2019-03-10T02:18:56.422Z,99.90
2019-03-10T02:21:26.296Z,99.90
2019-03-10T02:23:56.153Z,99.90
2019-03-10T02:26:25.987Z,99.90
2019-03-10T02:28:55.833Z,99.90
2019-03-10T02:31:25.593Z,99.90
2019-03-10T02:33:55.967Z,99.90
2019-03-10T02:36:25.833Z,99.90
2019-03-10T02:38:55.578Z,99.90
2019-03-10T02:41:25.350Z,99.90
2019-03-10T02:43:55.079Z,99.90
2019-03-10T02:46:24.804Z,99.90
2019-03-10T02:48:54.522Z,99.90
2019-03-10T02:51:24.691Z,99.90
2019-03-10T02:53:54.418Z,99.90
2019-03-10T02:56:24.154Z,99.90
2019-03-10T02:58:53.846Z,99.90
2019-03-10T03:01:23.631Z,99.90
2019-03-10T03:03:53.294Z,99.90
2019-03-10T03:06:23.720Z,99.90
2019-03-10T03:08:53.515Z,99.90
2019-03-10T03:11:23.401Z,99.90
2019-03-10T03:13:53.152Z,99.90
2019-03-10T03:16:22.928Z,99.90
2019-03-10T03:18:52.595Z,99.90
2019-03-10T03:21:23.134Z,99.90
2019-03-10T03:23:52.922Z,99.90
2019-03-10T03:26:22.707Z,99.90
2019-03-10T03:28:52.553Z,99.90
2019-03-10T03:31:22.273Z,99.90
2019-03-10T03:33:51.955Z,99.90
2019-03-10T03:36:25.964Z,99.90
2019-03-10T03:39:18.950Z,99.90
2019-03-10T03:41:48.691Z,99.90
2019-03-10T03:44:18.419Z,99.90
2019-03-10T03:46:48.175Z,99.90
2019-03-10T03:49:17.898Z,99.90
2019-03-10T03:51:47.731Z,99.90
2019-03-10T03:54:17.690Z,99.90
2019-03-10T03:56:47.421Z,99.90
2019-03-10T03:59:17.156Z,99.90
2019-03-10T04:02:14.549Z,99.90
2019-03-10T04:04:44.414Z,99.90
2019-03-10T04:07:14.148Z,99.90
2019-03-10T04:09:43.830Z,99.90
2019-03-10T04:12:13.612Z,99.90
2019-03-10T04:14:43.311Z,99.90
2019-03-10T04:17:12.979Z,99.90
2019-03-10T04:19:42.824Z,99.90
2019-03-10T04:22:12.579Z,99.90
2019-03-10T04:24:42.257Z,99.90
2019-03-10T04:27:12.016Z,99.90
2019-03-10T04:29:41.763Z,99.90
2019-03-10T04:32:11.621Z,99.90
2019-03-10T04:34:41.285Z,99.90
2019-03-10T04:37:11.039Z,99.90
2019-03-10T04:39:40.726Z,99.90
2019-03-10T04:42:10.527Z,99.90
2019-03-10T04:44:40.310Z,99.90
2019-03-10T04:47:09.972Z,99.90
2019-03-10T04:49:39.698Z,99.90
2019-03-10T04:52:09.434Z,99.90
2019-03-10T04:54:59.267Z,99.90
2019-03-10T04:57:28.988Z,99.90
2019-03-10T04:59:58.779Z,99.90
2019-03-10T05:02:28.598Z,99.90
2019-03-10T05:04:58.349Z,99.90
2019-03-10T05:07:28.142Z,99.90
2019-03-10T05:09:57.863Z,99.90
2019-03-10T05:12:27.744Z,99.90
2019-03-10T05:14:57.487Z,99.90
2019-03-10T05:17:27.254Z,99.90
2019-03-10T05:19:57.045Z,99.90
2019-03-10T05:22:26.748Z,99.90
2019-03-10T05:24:56.456Z,99.90
2019-03-10T05:27:26.194Z,99.90
2019-03-10T05:29:55.959Z,99.90
2019-03-10T05:32:26.607Z,99.90
2019-03-10T05:34:58.961Z,99.90
2019-03-10T05:37:28.974Z,99.90
2019-03-10T05:39:59.879Z,99.90
2019-03-10T05:42:29.601Z,99.90
2019-03-10T05:44:59.412Z,99.90
2019-03-10T05:47:29.246Z,99.90
2019-03-10T05:49:58.923Z,99.90
2019-03-10T05:52:28.751Z,99.90
2019-03-10T05:55:05.123Z,99.90
2019-03-10T05:57:32.301Z,99.90
2019-03-10T06:00:01.927Z,99.90
2019-03-10T06:02:31.629Z,99.90
2019-03-10T06:05:02.343Z,99.90
2019-03-10T06:07:32.146Z,99.90
2019-03-10T06:10:01.972Z,99.90
2019-03-10T06:12:31.725Z,99.90
2019-03-10T06:15:01.516Z,99.90
2019-03-10T06:17:31.334Z,99.90
2019-03-10T06:20:01.168Z,99.90
2019-03-10T06:22:30.938Z,99.90
2019-03-10T06:25:00.733Z,99.90
2019-03-10T06:27:30.390Z,99.90
2019-03-10T06:30:00.331Z,99.90
2019-03-10T06:32:30.245Z,99.90
2019-03-10T06:35:00.018Z,99.90
2019-03-10T06:37:29.775Z,99.90
2019-03-10T06:39:59.579Z,99.90
2019-03-10T06:42:29.369Z,99.90
2019-03-10T06:44:59.004Z,99.90
2019-03-10T06:47:28.754Z,99.90
2019-03-10T06:50:06.102Z,99.90
2019-03-10T06:52:56.427Z,99.90
2019-03-10T06:55:40.785Z,99.90
2019-03-10T06:58:25.571Z,99.90
2019-03-10T07:00:59.608Z,99.90
2019-03-10T07:03:44.324Z,99.90
2019-03-10T07:06:34.903Z,99.90
2019-03-10T07:09:05.982Z,99.90
2019-03-10T07:11:58.142Z,99.90
2019-03-10T07:14:46.650Z,99.90
2019-03-10T07:17:42.509Z,99.90
2019-03-10T07:20:21.300Z,99.90
2019-03-10T07:23:00.639Z,99.90
2019-03-10T07:25:51.097Z,99.90
2019-03-10T07:28:37.326Z,99.90
2019-03-10T07:31:40.733Z,99.90
2019-03-10T07:35:00.775Z,99.90
2019-03-10T07:38:12.039Z,99.90
2019-03-10T07:41:16.295Z,99.90
2019-03-10T07:43:50.521Z,99.90
2019-03-10T07:46:46.343Z,99.90
2019-03-10T07:49:32.419Z,99.90
2019-03-10T07:52:29.994Z,99.90
2019-03-10T07:55:32.372Z,99.90
2019-03-10T07:58:14.306Z,99.90
2019-03-10T08:01:05.802Z,99.90
2019-03-10T08:04:05.658Z,99.90
2019-03-10T08:07:06.753Z,99.90
2019-03-10T08:10:11.735Z,99.90
2019-03-10T08:13:11.199Z,99.90
2019-03-10T08:15:54.163Z,99.90
2019-03-10T08:18:38.697Z,99.90
2019-03-10T08:21:18.070Z,99.90
2019-03-10T08:24:16.870Z,99.90
2019-03-10T08:26:53.976Z,99.90
2019-03-10T08:29:51.952Z,99.90
2019-03-10T08:32:48.481Z,99.90
2019-03-10T08:35:43.031Z,99.90
2019-03-10T08:38:47.029Z,99.90
2019-03-10T08:41:48.394Z,99.90
2019-03-10T08:45:04.587Z,99.90
2019-03-10T08:47:54.706Z,99.90
2019-03-10T08:50:46.322Z,99.90
2019-03-10T08:54:00.272Z,99.90
2019-03-10T08:56:35.765Z,99.90
2019-03-10T08:59:36.927Z,99.90
2019-03-10T09:02:23.281Z,99.90
2019-03-10T09:05:38.245Z,99.90
2019-03-10T09:08:34.091Z,99.90
2019-03-10T09:11:27.515Z,99.90
2019-03-10T09:14:22.229Z,99.90
2019-03-10T09:17:06.813Z,99.90
2019-03-10T09:19:46.025Z,99.90
2019-03-10T09:22:31.533Z,99.90
2019-03-10T09:25:08.677Z,99.90
2019-03-10T09:27:57.374Z,99.90
2019-03-10T09:30:49.005Z,99.90
2019-03-10T09:33:36.217Z,99.90
2019-03-10T09:36:33.981Z,99.90
2019-03-10T09:39:23.306Z,99.90
2019-03-10T09:42:21.198Z,99.90
2019-03-10T09:45:19.175Z,99.90
2019-03-10T09:48:06.510Z,99.90
2019-03-10T09:50:50.150Z,99.90
2019-03-10T09:53:45.391Z,99.90
2019-03-10T09:56:32.770Z,99.90
2019-03-10T09:59:10.874Z,99.90
2019-03-10T10:02:04.404Z,99.90
2019-03-10T10:04:43.168Z,99.90
2019-03-10T10:07:30.724Z,99.90
2019-03-10T10:10:19.459Z,99.90
2019-03-10T10:13:06.682Z,99.90
2019-03-10T10:15:53.837Z,99.90
2019-03-10T10:18:28.746Z,99.90
2019-03-10T10:21:09.067Z,99.90
2019-03-10T10:24:06.739Z,99.90
2019-03-10T10:26:54.071Z,99.90
2019-03-10T10:29:33.754Z,99.90
2019-03-10T10:32:27.662Z,99.90
2019-03-10T10:35:25.150Z,99.90
2019-03-10T10:38:18.707Z,99.90
2019-03-10T10:41:01.105Z,99.90
2019-03-10T10:43:48.516Z,99.90
2019-03-10T10:46:37.106Z,99.90
2019-03-10T10:49:35.035Z,99.90
2019-03-10T10:52:13.244Z,99.90
2019-03-10T10:55:14.048Z,99.90
2019-03-10T10:58:05.298Z,99.90
2019-03-10T11:00:51.982Z,99.90
2019-03-10T11:03:39.196Z,99.90
2019-03-10T11:06:19.647Z,99.90
2019-03-10T11:09:26.723Z,99.90
2019-03-10T11:12:15.421Z,99.90
2019-03-10T11:15:03.077Z,99.90
2019-03-10T11:17:51.751Z,99.90
2019-03-10T11:20:38.354Z,99.90
2019-03-10T11:23:27.035Z,99.90
2019-03-10T11:26:14.497Z,99.90
2019-03-10T11:29:12.125Z,99.90
2019-03-10T11:31:59.435Z,99.90
2019-03-10T11:34:50.861Z,99.90
2019-03-10T11:37:38.185Z,99.90
2019-03-10T11:40:36.985Z,99.90
2019-03-10T11:43:22.891Z,99.90
2019-03-10T11:46:29.944Z,99.90
2019-03-10T11:49:15.340Z,99.90
2019-03-10T11:52:16.105Z,99.90
2019-03-10T11:54:58.590Z,99.90
2019-03-10T11:57:50.313Z,99.90
2019-03-10T12:00:33.828Z,99.90
2019-03-10T12:03:28.149Z,99.90
2019-03-10T12:06:11.040Z,99.90
2019-03-10T12:09:05.390Z,99.90
2019-03-10T12:11:35.216Z,99.90
2019-03-10T12:14:04.970Z,99.90
2019-03-10T12:16:34.686Z,99.90
2019-03-10T12:19:04.467Z,99.90
2019-03-10T12:21:35.278Z,99.90
2019-03-10T12:24:05.249Z,99.90
2019-03-10T12:26:34.935Z,99.90
2019-03-10T12:29:04.718Z,99.90
2019-03-10T12:31:34.388Z,99.90
2019-03-10T12:34:05.446Z,99.90
2019-03-10T12:36:35.559Z,99.90
2019-03-10T12:39:07.764Z,99.90
2019-03-10T12:41:37.773Z,99.90
2019-03-10T12:44:07.491Z,99.90
2019-03-10T12:46:37.103Z,99.90
2019-03-10T12:49:06.928Z,99.90
2019-03-10T12:51:36.772Z,99.90
2019-03-10T12:54:06.563Z,99.90
2019-03-10T12:56:36.343Z,99.90
2019-03-10T12:59:05.992Z,99.90
2019-03-10T13:01:35.801Z,99.90
2019-03-10T13:04:05.731Z,99.90
2019-03-10T13:06:35.495Z,99.90
2019-03-10T13:09:08.466Z,99.90
2019-03-10T13:11:38.152Z,99.90
2019-03-10T13:14:07.999Z,99.90
2019-03-10T13:16:37.936Z,99.90
2019-03-10T13:19:07.722Z,99.90
2019-03-10T13:21:37.505Z,99.90
2019-03-10T13:24:07.357Z,99.90
2019-03-10T13:26:37.097Z,99.90
2019-03-10T13:29:06.770Z,99.90
2019-03-10T13:31:36.613Z,99.90
2019-03-10T13:34:06.377Z,99.90
2019-03-10T13:36:36.031Z,99.90
2019-03-10T13:39:07.526Z,99.90
2019-03-10T13:41:41.158Z,99.90
2019-03-10T13:44:10.970Z,99.90
2019-03-10T13:46:40.613Z,99.90
2019-03-10T13:49:10.822Z,99.90
2019-03-10T13:51:40.535Z,99.90
2019-03-10T13:54:10.286Z,99.90
2019-03-10T13:56:40.029Z,99.90
2019-03-10T13:59:10.482Z,99.90
2019-03-10T14:01:40.428Z,99.90
2019-03-10T14:04:10.185Z,99.90
2019-03-10T14:06:39.947Z,99.90
2019-03-10T14:09:10.258Z,99.90
2019-03-10T14:11:39.947Z,99.90
2019-03-10T14:14:09.709Z,99.90
2019-03-10T14:16:39.840Z,99.90
2019-03-10T14:19:09.554Z,99.90
2019-03-10T14:21:39.388Z,99.90
2019-03-10T14:24:09.207Z,99.90
2019-03-10T14:26:39.128Z,99.90
2019-03-10T14:29:08.879Z,99.90
2019-03-10T14:31:38.497Z,99.90
2019-03-10T14:34:08.222Z,99.90
2019-03-10T14:36:38.003Z,99.90
2019-03-10T14:39:08.704Z,99.90
2019-03-10T14:41:40.241Z,99.90
2019-03-10T14:44:10.073Z,99.90
2019-03-10T14:46:39.709Z,99.90
2019-03-10T14:49:22.736Z,99.90
2019-03-10T14:51:45.542Z,99.90
2019-03-10T14:54:15.330Z,99.90
2019-03-10T14:56:45.434Z,99.90
2019-03-10T14:59:15.355Z,99.90
2019-03-10T15:01:45.011Z,99.90
2019-03-10T15:04:14.834Z,99.90
2019-03-10T15:06:44.591Z,99.90
2019-03-10T15:09:14.355Z,99.90
2019-03-10T15:11:44.139Z,99.90
2019-03-10T15:14:21.817Z,99.90
2019-03-10T15:16:51.561Z,99.90
2019-03-10T15:19:21.244Z,99.90
2019-03-10T15:21:51.103Z,99.90
2019-03-10T15:24:20.794Z,99.90
2019-03-10T15:26:50.557Z,99.90
2019-03-10T15:29:22.811Z,99.90
2019-03-10T15:31:56.081Z,99.90
2019-03-10T15:34:31.364Z,99.90
2019-03-10T15:37:04.131Z,99.90
2019-03-10T15:39:36.251Z,99.90
2019-03-10T15:42:11.409Z,99.90
2019-03-10T15:44:41.616Z,99.90
2019-03-10T15:47:14.163Z,99.90
2019-03-10T15:49:45.384Z,99.90
2019-03-10T15:52:15.334Z,99.90
2019-03-10T15:54:45.123Z,99.90
2019-03-10T15:57:14.878Z,99.90
2019-03-10T15:59:45.122Z,99.90
2019-03-10T16:02:14.958Z,99.90
2019-03-10T16:04:52.727Z,99.90
2019-03-10T16:07:22.544Z,99.90
2019-03-10T16:09:54.095Z,99.90
2019-03-10T16:12:28.291Z,99.90
2019-03-10T16:14:59.114Z,99.90
2019-03-10T16:17:29.167Z,99.90
2019-03-10T16:20:05.154Z,99.90
2019-03-10T16:22:37.664Z,99.90
2019-03-10T16:25:23.089Z,99.90
2019-03-10T16:27:56.641Z,99.90
2019-03-10T16:30:34.167Z,99.90
2019-03-10T16:33:06.206Z,99.90
2019-03-10T16:35:35.991Z,99.90
2019-03-10T16:38:05.742Z,99.90
2019-03-10T16:40:42.571Z,99.90
2019-03-10T16:43:12.320Z,99.90
2019-03-10T16:45:47.324Z,99.90
2019-03-10T16:48:18.298Z,99.90
2019-03-10T16:50:50.126Z,99.90
2019-03-10T16:53:20.672Z,99.90
2019-03-10T16:55:50.519Z,99.90
2019-03-10T16:58:23.900Z,99.90
2019-03-10T17:00:54.613Z,99.90
2019-03-10T17:03:24.571Z,99.90
2019-03-10T17:05:55.616Z,99.90
2019-03-10T17:08:25.325Z,99.90
2019-03-10T17:11:00.949Z,99.90
2019-03-10T17:13:30.432Z,99.90
2019-03-10T17:16:01.566Z,99.90
2019-03-10T17:18:32.951Z,99.90
2019-03-10T17:21:02.672Z,99.90
2019-03-10T17:23:32.333Z,99.90
2019-03-10T17:26:03.905Z,99.90
2019-03-10T17:28:33.618Z,99.90
2019-03-10T17:31:05.667Z,99.90
2019-03-10T17:33:35.412Z,99.90
2019-03-10T17:36:05.471Z,99.90
2019-03-10T17:38:35.234Z,99.90
2019-03-10T17:41:05.033Z,99.90
2019-03-10T17:43:35.864Z,99.90
2019-03-10T17:46:05.796Z,99.90
2019-03-10T17:48:36.927Z,99.90
2019-03-10T17:51:06.649Z,99.90
2019-03-10T17:53:36.515Z,99.90
2019-03-10T17:56:06.671Z,99.90
2019-03-10T17:58:38.841Z,99.90
2019-03-10T18:01:11.622Z,99.90
2019-03-10T18:03:41.406Z,99.90
2019-03-10T18:06:11.171Z,99.90
2019-03-10T18:08:41.023Z,99.90
2019-03-10T18:11:13.290Z,99.90
2019-03-10T18:13:43.694Z,99.90
2019-03-10T18:16:13.498Z,99.90
2019-03-10T18:18:43.334Z,99.90
2019-03-10T18:21:13.166Z,99.90
2019-03-10T18:23:42.912Z,99.90
2019-03-10T18:26:12.671Z,99.90
2019-03-10T18:28:44.217Z,99.90
2019-03-10T18:31:15.486Z,99.90
2019-03-10T18:33:46.055Z,99.90
2019-03-10T18:36:15.860Z,99.90
2019-03-10T18:38:47.843Z,99.90
2019-03-10T18:41:17.577Z,99.90
2019-03-10T18:43:50.096Z,99.90
2019-03-10T18:46:19.758Z,99.90
2019-03-10T18:48:49.622Z,99.90
2019-03-10T18:51:23.409Z,99.90
2019-03-10T18:53:56.698Z,99.90
2019-03-10T18:56:34.206Z,99.90
2019-03-10T18:59:05.849Z,99.90
2019-03-10T19:01:35.663Z,99.90
2019-03-10T19:04:05.324Z,99.90
2019-03-10T19:06:35.081Z,99.90
2019-03-10T19:09:09.393Z,99.90
2019-03-10T19:11:40.103Z,99.90
2019-03-10T19:14:16.778Z,99.90
2019-03-10T19:16:48.668Z,99.90
2019-03-10T19:19:18.211Z,99.90
2019-03-10T19:21:48.004Z,99.90
2019-03-10T19:24:17.886Z,99.90
2019-03-10T19:26:47.791Z,99.90
2019-03-10T19:29:18.012Z,99.90
2019-03-10T19:31:47.739Z,99.90
2019-03-10T19:34:18.830Z,99.90
2019-03-10T19:36:57.068Z,99.90
2019-03-10T19:39:21.780Z,99.90
2019-03-10T19:41:51.512Z,99.90
2019-03-10T19:44:21.502Z,99.90
2019-03-10T19:46:51.732Z,99.90
2019-03-10T19:49:22.522Z,99.90
2019-03-10T19:51:52.393Z,99.90
2019-03-10T19:54:23.051Z,99.90
2019-03-10T19:56:52.846Z,99.90
2019-03-10T19:59:22.715Z,99.90
2019-03-10T20:02:02.305Z,99.90
2019-03-10T20:04:32.077Z,99.90
2019-03-10T20:07:02.552Z,99.90
2019-03-10T20:09:32.215Z,99.90
2019-03-10T20:12:03.055Z,99.90
2019-03-10T20:14:37.006Z,97.90
2019-03-10T20:17:06.830Z,95.30
2019-03-10T20:19:36.575Z,89.80
2019-03-10T20:22:06.341Z,82.40
2019-03-10T20:24:38.382Z,79.80
2019-03-10T20:27:10.952Z,82.00
2019-03-10T20:29:40.707Z,87.00
2019-03-10T20:32:14.112Z,77.10
2019-03-10T20:34:41.971Z,78.40
2019-03-10T20:37:11.818Z,75.00
2019-03-10T20:39:41.621Z,79.90
2019-03-10T20:42:12.352Z,71.80
2019-03-10T20:44:43.394Z,72.80
2019-03-10T20:47:13.283Z,68.50
2019-03-10T20:49:43.087Z,67.70
2019-03-10T20:52:12.829Z,69.00
2019-03-10T20:54:46.006Z,70.60
2019-03-10T20:57:16.842Z,72.10
2019-03-10T20:59:46.694Z,69.00
2019-03-10T21:02:18.722Z,66.60
2019-03-10T21:04:48.542Z,71.20
2019-03-10T21:07:18.425Z,62.30
2019-03-10T21:09:48.142Z,63.40
2019-03-10T21:12:18.353Z,61.50
2019-03-10T21:14:48.190Z,62.90
2019-03-10T21:17:20.950Z,62.20
2019-03-10T21:19:51.991Z,63.40
2019-03-10T21:22:23.362Z,61.10
2019-03-10T21:24:53.143Z,62.60
2019-03-10T21:27:22.884Z,62.50
2019-03-10T21:29:53.592Z,61.40
2019-03-10T21:32:23.414Z,62.80
2019-03-10T21:34:53.414Z,64.30
2019-03-10T21:37:24.069Z,63.70
2019-03-10T21:39:55.059Z,64.50
2019-03-10T21:42:27.364Z,61.30
2019-03-10T21:44:57.199Z,60.00
2019-03-10T21:47:28.288Z,59.80
2019-03-10T21:50:02.436Z,60.00
2019-03-10T21:52:32.217Z,58.20
2019-03-10T21:55:04.654Z,57.50
2019-03-10T21:57:35.193Z,57.80
2019-03-10T22:00:07.246Z,56.80
2019-03-10T22:02:37.435Z,56.60
2019-03-10T22:05:08.710Z,57.20
2019-03-10T22:07:40.586Z,53.70
2019-03-10T22:10:11.086Z,52.70
2019-03-10T22:12:55.275Z,53.00
2019-03-10T22:15:40.759Z,53.70
2019-03-10T22:18:02.303Z,50.80
2019-03-10T22:20:32.070Z,50.90
2019-03-10T22:23:07.426Z,50.30
2019-03-10T22:25:41.646Z,52.00
2019-03-10T22:31:17.439Z,49.90
2019-03-10T22:33:47.574Z,49.80
2019-03-10T22:36:24.806Z,49.90
2019-03-10T22:38:57.815Z,50.80
2019-03-10T22:41:28.943Z,50.30
2019-03-10T22:44:23.278Z,50.30
2019-03-10T22:49:31.927Z,51.00
2019-03-10T22:52:03.821Z,54.60
2019-03-10T22:54:33.625Z,55.00
2019-03-10T22:57:08.924Z,53.20
2019-03-10T22:59:39.107Z,53.90
2019-03-10T23:02:10.126Z,55.40
2019-03-10T23:04:39.971Z,56.10
2019-03-10T23:07:09.987Z,55.70
2019-03-10T23:10:39.579Z,58.70
2019-03-10T23:13:11.847Z,58.20
2019-03-10T23:15:41.962Z,58.30
2019-03-10T23:18:12.576Z,58.70
2019-03-10T23:20:44.095Z,60.90
2019-03-10T23:23:17.752Z,58.60
2019-03-10T23:27:07.865Z,59.30
2019-03-10T23:29:46.770Z,61.30
2019-03-10T23:33:20.696Z,67.40
2019-03-10T23:39:17.754Z,72.00
2019-03-10T23:41:49.739Z,71.90
2019-03-10T23:44:19.720Z,74.10
2019-03-10T23:46:49.670Z,72.30
2019-03-10T23:49:19.611Z,73.70
2019-03-10T23:51:49.357Z,80.20
2019-03-10T23:54:19.249Z,73.50
2019-03-10T23:56:49.992Z,79.90
2019-03-10T23:59:19.759Z,78.80
